createdAt,value
2022-11-28T00:01:02.650Z,13.90
2022-11-28T00:03:29.332Z,14.13
2022-11-28T00:05:56.417Z,10.03
2022-11-28T00:08:23.323Z,11.43
2022-11-28T00:10:49.936Z,11.70
2022-11-28T00:13:16.614Z,11.30
2022-11-28T00:15:43.456Z,16.37
2022-11-28T00:18:11.290Z,20.57
2022-11-28T00:20:37.842Z,13.63
2022-11-28T00:23:04.380Z,14.50
2022-11-28T00:25:30.954Z,16.53
2022-11-28T00:27:57.591Z,8.53
2022-11-28T00:30:24.143Z,8.30
2022-11-28T00:32:50.638Z,6.57
2022-11-28T00:35:17.206Z,3.27
2022-11-28T00:37:43.882Z,7.90
2022-11-28T00:40:10.610Z,12.87
2022-11-28T00:42:37.480Z,7.30
2022-11-28T00:45:04.146Z,11.03
2022-11-28T00:47:30.711Z,12.63
2022-11-28T00:49:57.238Z,13.10
2022-11-28T00:52:23.755Z,10.57
2022-11-28T00:54:50.293Z,9.33
2022-11-28T00:57:16.849Z,9.30
2022-11-28T00:59:43.370Z,8.73
2022-11-28T01:02:09.975Z,8.63
2022-11-28T01:04:36.607Z,7.13
2022-11-28T01:07:03.542Z,10.20
2022-11-28T01:09:30.097Z,7.77
2022-11-28T01:11:56.682Z,11.90
2022-11-28T01:14:24.162Z,9.87
2022-11-28T01:16:50.991Z,9.47
2022-11-28T01:19:17.875Z,14.17
2022-11-28T01:21:44.629Z,12.17
2022-11-28T01:24:11.221Z,10.40
2022-11-28T01:26:38.607Z,11.53
2022-11-28T01:29:05.357Z,22.90
2022-11-28T01:31:32.137Z,17.03
2022-11-28T01:33:58.838Z,9.63
2022-11-28T01:36:26.233Z,13.30
2022-11-28T01:38:53.275Z,7.57
2022-11-28T01:41:22.947Z,8.10
2022-11-28T01:43:58.805Z,12.07
2022-11-28T01:46:25.585Z,16.73
2022-11-28T01:48:52.966Z,11.57
2022-11-28T01:51:19.773Z,14.17
2022-11-28T01:53:47.199Z,10.07
2022-11-28T01:56:15.882Z,20.83
2022-11-28T01:58:45.593Z,11.03
2022-11-28T02:01:12.755Z,8.90
2022-11-28T02:03:41.975Z,12.80
2022-11-28T02:06:08.705Z,11.13
2022-11-28T02:08:35.880Z,15.00
2022-11-28T02:11:19.219Z,12.80
2022-11-28T02:14:04.735Z,15.17
2022-11-28T02:16:37.960Z,15.33
2022-11-28T02:19:10.576Z,10.83
2022-11-28T02:21:52.321Z,8.83
2022-11-28T02:24:18.891Z,24.87
2022-11-28T02:27:04.165Z,15.90
2022-11-28T02:29:30.691Z,11.43
2022-11-28T02:32:06.386Z,12.33
2022-11-28T02:34:32.864Z,13.20
2022-11-28T02:37:09.733Z,16.43
2022-11-28T02:39:55.037Z,9.20
2022-11-28T02:42:24.587Z,13.10
2022-11-28T02:45:04.064Z,11.60
2022-11-28T02:47:33.092Z,9.73
2022-11-28T02:50:08.204Z,13.07
2022-11-28T02:52:37.405Z,10.67
2022-11-28T02:55:04.255Z,16.00
2022-11-28T02:57:37.763Z,10.10
2022-11-28T03:00:22.936Z,11.10
2022-11-28T03:03:12.835Z,19.33
2022-11-28T03:05:39.360Z,9.80
2022-11-28T03:08:22.524Z,13.60
2022-11-28T03:10:55.102Z,10.53
2022-11-28T03:13:21.553Z,14.83
2022-11-28T03:16:06.873Z,14.00
2022-11-28T03:18:40.191Z,7.40
2022-11-28T03:21:15.205Z,9.50
2022-11-28T03:23:44.717Z,6.70
2022-11-28T03:26:31.468Z,6.43
2022-11-28T03:29:03.622Z,6.87
2022-11-28T03:31:36.594Z,6.20
2022-11-28T03:34:04.593Z,5.30
2022-11-28T03:36:32.663Z,5.63
2022-11-28T03:39:19.445Z,10.03
2022-11-28T03:41:59.143Z,10.70
2022-11-28T03:44:30.800Z,7.67
2022-11-28T03:46:59.171Z,10.47
2022-11-28T03:49:39.162Z,8.40
2022-11-28T03:52:12.083Z,9.03
2022-11-28T03:54:45.436Z,7.00
2022-11-28T03:57:18.299Z,8.77
2022-11-28T03:59:46.717Z,13.73
2022-11-28T04:02:13.311Z,11.30
2022-11-28T04:04:45.366Z,11.00
2022-11-28T04:07:21.721Z,11.27
2022-11-28T04:10:17.577Z,12.60
2022-11-28T04:12:44.088Z,9.40
2022-11-28T04:15:17.743Z,9.60
2022-11-28T04:17:53.152Z,10.90
2022-11-28T04:20:28.574Z,27.50
2022-11-28T04:22:57.885Z,18.17
2022-11-28T04:25:25.983Z,17.17
2022-11-28T04:27:59.573Z,15.33
2022-11-28T04:30:26.108Z,38.33
2022-11-28T04:32:56.034Z,26.17
2022-11-28T04:35:26.925Z,18.00
2022-11-28T04:37:54.707Z,18.60
2022-11-28T04:40:23.680Z,16.63
2022-11-28T04:42:55.456Z,11.87
2022-11-28T04:45:31.541Z,13.03
2022-11-28T04:47:58.356Z,12.10
2022-11-28T04:50:28.394Z,11.80
2022-11-28T04:52:57.716Z,12.50
2022-11-28T04:55:24.177Z,10.20
2022-11-28T04:57:57.293Z,13.00
2022-11-28T05:00:25.748Z,10.40
2022-11-28T05:02:54.103Z,24.77
2022-11-28T05:05:22.696Z,8.77
2022-11-28T05:07:49.343Z,13.10
2022-11-28T05:10:16.321Z,12.70
2022-11-28T05:12:42.989Z,9.70
2022-11-28T05:15:10.117Z,9.80
2022-11-28T05:17:41.916Z,12.93
2022-11-28T05:20:09.423Z,10.87
2022-11-28T05:22:35.992Z,13.47
2022-11-28T05:25:02.532Z,15.63
2022-11-28T05:27:29.433Z,11.20
2022-11-28T05:29:56.054Z,12.40
2022-11-28T05:32:22.717Z,16.27
2022-11-28T05:34:49.226Z,8.03
2022-11-28T05:37:15.936Z,8.20
2022-11-28T05:39:42.827Z,6.73
2022-11-28T05:42:09.638Z,11.77
2022-11-28T05:44:36.748Z,10.97
2022-11-28T05:47:03.407Z,8.63
2022-11-28T05:49:30.041Z,12.87
2022-11-28T05:51:56.642Z,8.67
2022-11-28T05:54:23.281Z,15.47
2022-11-28T05:56:49.883Z,19.07
2022-11-28T05:59:16.592Z,16.53
2022-11-28T06:01:43.511Z,16.57
2022-11-28T06:04:10.216Z,22.80
2022-11-28T06:06:37.262Z,18.23
2022-11-28T06:09:04.731Z,23.70
2022-11-28T06:11:32.038Z,16.90
2022-11-28T06:13:58.613Z,17.07
2022-11-28T06:16:26.747Z,15.20
2022-11-28T06:18:56.627Z,18.40
2022-11-28T06:21:23.343Z,18.60
2022-11-28T06:23:50.429Z,13.37
2022-11-28T06:26:18.784Z,17.67
2022-11-28T06:28:45.497Z,22.20
2022-11-28T06:31:16.399Z,24.97
2022-11-28T06:33:42.986Z,15.23
2022-11-28T06:36:10.035Z,18.70
2022-11-28T06:38:39.100Z,24.37
2022-11-28T06:41:07.609Z,25.47
2022-11-28T06:43:34.253Z,17.30
2022-11-28T06:46:01.154Z,16.40
2022-11-28T06:48:27.900Z,15.83
2022-11-28T06:50:54.982Z,17.27
2022-11-28T06:53:21.548Z,14.00
2022-11-28T06:55:48.076Z,16.80
2022-11-28T06:58:14.848Z,12.93
2022-11-28T07:00:41.537Z,16.90
2022-11-28T07:03:08.275Z,20.40
2022-11-28T07:05:34.823Z,14.63
2022-11-28T07:08:01.656Z,20.53
2022-11-28T07:10:28.492Z,18.07
2022-11-28T07:12:55.989Z,19.83
2022-11-28T07:15:23.003Z,19.03
2022-11-28T07:17:49.687Z,22.73
2022-11-28T07:20:16.370Z,19.57
2022-11-28T07:22:43.668Z,24.00
2022-11-28T07:25:10.795Z,20.70
2022-11-28T07:27:37.341Z,23.47
2022-11-28T07:30:04.008Z,18.10
2022-11-28T07:32:30.782Z,17.87
2022-11-28T07:34:57.440Z,17.13
2022-11-28T07:37:24.042Z,20.00
2022-11-28T07:39:50.618Z,19.33
2022-11-28T07:42:17.174Z,25.77
2022-11-28T07:44:55.202Z,24.47
2022-11-28T07:47:21.920Z,22.87
2022-11-28T07:49:48.472Z,19.07
2022-11-28T07:52:15.344Z,19.77
2022-11-28T07:54:41.857Z,20.73
2022-11-28T07:57:12.693Z,25.87
2022-11-28T07:59:39.991Z,20.13
2022-11-28T08:02:06.756Z,27.63
2022-11-28T08:04:33.581Z,17.20
2022-11-28T08:07:00.138Z,20.97
2022-11-28T08:09:26.685Z,30.00
2022-11-28T08:11:53.230Z,22.00
2022-11-28T08:14:20.302Z,25.37
2022-11-28T08:16:46.842Z,28.50
2022-11-28T08:19:13.496Z,27.40
2022-11-28T08:21:40.173Z,27.03
2022-11-28T08:24:08.119Z,28.43
2022-11-28T08:26:35.220Z,27.60
2022-11-28T08:29:02.528Z,26.00
2022-11-28T08:31:36.873Z,34.73
2022-11-28T08:34:05.034Z,38.10
2022-11-28T08:36:32.061Z,23.60
2022-11-28T08:39:22.861Z,30.70
2022-11-28T08:41:49.993Z,27.50
2022-11-28T08:44:16.785Z,26.23
2022-11-28T08:46:43.514Z,25.97
2022-11-28T08:49:10.235Z,22.73
2022-11-28T08:51:37.047Z,22.97
2022-11-28T08:54:03.827Z,24.33
2022-11-28T08:56:30.461Z,23.03
2022-11-28T08:58:57.194Z,24.40
2022-11-28T09:01:25.364Z,25.97
2022-11-28T09:03:52.562Z,24.60
2022-11-28T09:06:20.603Z,24.40
2022-11-28T09:08:47.737Z,26.30
2022-11-28T09:11:16.109Z,26.80
2022-11-28T09:13:42.953Z,22.47
2022-11-28T09:16:10.011Z,20.37
2022-11-28T09:18:36.770Z,26.27
2022-11-28T09:21:05.331Z,16.63
2022-11-28T09:23:32.144Z,21.63
2022-11-28T09:25:58.964Z,14.47
2022-11-28T09:28:28.770Z,15.40
2022-11-28T09:31:02.660Z,11.87
2022-11-28T09:33:29.495Z,22.13
2022-11-28T09:35:56.647Z,11.00
2022-11-28T09:38:23.319Z,9.33
2022-11-28T09:40:50.349Z,8.67
2022-11-28T09:43:21.571Z,13.90
2022-11-28T09:45:50.978Z,8.57
2022-11-28T09:48:23.209Z,6.27
2022-11-28T09:50:52.556Z,11.90
2022-11-28T09:53:28.395Z,9.00
2022-11-28T09:56:13.776Z,7.17
2022-11-28T09:58:48.441Z,5.40
2022-11-28T10:01:17.208Z,6.27
2022-11-28T10:03:43.938Z,5.20
2022-11-28T10:06:23.315Z,8.27
2022-11-28T10:09:05.529Z,9.17
2022-11-28T10:11:32.179Z,8.23
2022-11-28T10:14:08.844Z,5.80
2022-11-28T10:16:49.360Z,4.77
2022-11-28T10:19:38.592Z,7.50
2022-11-28T10:22:06.795Z,4.57
2022-11-28T10:24:43.506Z,3.10
2022-11-28T10:27:12.454Z,8.97
2022-11-28T10:29:39.055Z,8.00
2022-11-28T10:32:06.467Z,5.73
2022-11-28T10:34:39.202Z,4.63
2022-11-28T10:37:25.840Z,4.27
2022-11-28T10:39:52.730Z,4.77
2022-11-28T10:42:22.390Z,4.50
2022-11-28T10:45:15.111Z,12.53
2022-11-28T10:47:41.662Z,6.77
2022-11-28T10:50:15.461Z,6.70
2022-11-28T10:52:50.140Z,6.20
2022-11-28T10:55:29.241Z,11.30
2022-11-28T10:58:03.547Z,8.30
2022-11-28T11:00:30.604Z,7.00
2022-11-28T11:03:00.730Z,19.67
2022-11-28T11:05:28.730Z,6.17
2022-11-28T11:07:59.742Z,8.77
2022-11-28T11:10:33.460Z,4.73
2022-11-28T11:13:00.220Z,7.93
2022-11-28T11:15:31.080Z,8.80
2022-11-28T11:17:59.794Z,6.20
2022-11-28T11:20:31.415Z,6.50
2022-11-28T11:22:59.913Z,9.40
2022-11-28T11:25:28.123Z,7.40
2022-11-28T11:27:56.110Z,11.17
2022-11-28T11:30:27.076Z,7.03
2022-11-28T11:32:54.689Z,7.97
2022-11-28T11:35:33.131Z,8.90
2022-11-28T11:38:19.982Z,18.83
2022-11-28T11:40:47.182Z,13.83
2022-11-28T11:43:23.031Z,11.23
2022-11-28T11:46:03.522Z,14.57
2022-11-28T11:48:37.637Z,10.63
2022-11-28T11:51:04.635Z,12.83
2022-11-28T11:53:31.448Z,11.23
2022-11-28T11:56:00.555Z,12.67
2022-11-28T11:58:41.367Z,19.80
2022-11-28T12:01:08.735Z,11.93
2022-11-28T12:03:39.688Z,12.63
2022-11-28T12:06:45.075Z,13.37
2022-11-28T12:09:34.417Z,15.17
2022-11-28T12:12:07.463Z,12.50
2022-11-28T12:14:38.046Z,17.13
2022-11-28T12:17:40.523Z,20.33
2022-11-28T12:20:25.750Z,13.73
2022-11-28T12:23:05.316Z,16.17
2022-11-28T12:25:36.484Z,11.87
2022-11-28T12:28:32.413Z,17.30
2022-11-28T12:31:35.854Z,22.27
2022-11-28T12:34:13.745Z,17.07
2022-11-28T12:36:47.625Z,17.53
2022-11-28T12:39:14.953Z,10.90
2022-11-28T12:42:12.397Z,14.60
2022-11-28T12:45:08.698Z,16.00
2022-11-28T12:47:58.136Z,15.27
2022-11-28T12:50:33.534Z,15.57
2022-11-28T12:53:12.048Z,13.37
2022-11-28T12:55:49.237Z,17.00
2022-11-28T12:58:16.077Z,18.43
2022-11-28T13:01:00.408Z,16.20
2022-11-28T13:03:36.584Z,19.90
2022-11-28T13:06:10.488Z,14.50
2022-11-28T13:08:50.778Z,14.47
2022-11-28T13:11:24.360Z,20.83
2022-11-28T13:14:03.512Z,21.40
2022-11-28T13:16:45.162Z,21.70
2022-11-28T13:19:27.066Z,20.90
2022-11-28T13:22:43.840Z,18.70
2022-11-28T13:25:25.005Z,22.70
2022-11-28T13:27:56.224Z,17.07
2022-11-28T13:30:23.001Z,21.80
2022-11-28T13:33:01.520Z,25.50
2022-11-28T13:35:28.688Z,23.40
2022-11-28T13:40:56.344Z,20.27
2022-11-28T13:43:33.061Z,19.63
2022-11-28T13:46:01.528Z,21.60
2022-11-28T13:49:05.898Z,22.77
2022-11-28T13:51:28.882Z,22.23
2022-11-28T13:54:16.543Z,28.70
2022-11-28T13:56:46.359Z,31.43
2022-11-28T13:59:22.894Z,23.53
2022-11-28T14:02:01.011Z,22.13
2022-11-28T14:04:29.389Z,20.07
2022-11-28T14:07:04.625Z,21.23
2022-11-28T14:09:44.912Z,33.00
2022-11-28T14:12:21.186Z,20.27
2022-11-28T14:14:56.499Z,22.23
2022-11-28T14:17:41.647Z,18.73
2022-11-28T14:20:11.376Z,24.43
2022-11-28T14:22:41.145Z,34.60
2022-11-28T14:25:23.729Z,29.40
2022-11-28T14:28:11.125Z,28.03
2022-11-28T14:30:43.070Z,21.90
2022-11-28T14:33:33.097Z,24.77
2022-11-28T14:36:03.296Z,34.30
2022-11-28T14:38:29.931Z,34.93
2022-11-28T14:41:01.055Z,22.07
2022-11-28T14:43:31.513Z,36.13
2022-11-28T14:46:16.715Z,32.37
2022-11-28T14:48:58.939Z,23.97
2022-11-28T14:51:44.448Z,29.13
2022-11-28T14:54:21.042Z,28.13
2022-11-28T14:56:48.365Z,32.53
2022-11-28T14:59:16.516Z,37.83
2022-11-28T15:01:54.641Z,35.57
2022-11-28T15:04:24.463Z,46.13
2022-11-28T15:06:52.906Z,39.80
2022-11-28T15:09:28.871Z,37.33
2022-11-28T15:12:04.922Z,46.00
2022-11-28T15:14:33.249Z,31.80
2022-11-28T15:17:03.266Z,46.93
2022-11-28T15:19:33.000Z,31.70
2022-11-28T15:22:00.328Z,36.70
2022-11-28T15:24:27.423Z,35.20
2022-11-28T15:26:57.558Z,32.10
2022-11-28T15:29:26.154Z,40.80
2022-11-28T15:31:55.529Z,80.17
2022-11-28T15:34:27.040Z,52.70
2022-11-28T15:36:55.074Z,39.97
2022-11-28T15:39:27.308Z,38.83
2022-11-28T15:41:55.494Z,42.00
2022-11-28T15:44:22.672Z,44.67
2022-11-28T15:46:49.471Z,38.33
2022-11-28T15:49:27.524Z,46.10
2022-11-28T15:51:54.930Z,34.60
2022-11-28T15:54:25.832Z,34.53
2022-11-28T15:56:56.291Z,37.43
2022-11-28T15:59:22.920Z,37.10
2022-11-28T16:01:51.655Z,27.13
2022-11-28T16:04:20.989Z,34.57
2022-11-28T16:06:51.734Z,52.17
2022-11-28T16:09:18.379Z,33.17
2022-11-28T16:11:46.632Z,29.70
2022-11-28T16:14:19.417Z,31.20
2022-11-28T16:16:46.126Z,30.07
2022-11-28T16:19:22.687Z,35.07
2022-11-28T16:21:55.033Z,33.23
2022-11-28T16:24:35.345Z,34.03
2022-11-28T16:27:05.507Z,37.40
2022-11-28T16:29:34.818Z,39.20
2022-11-28T16:32:09.329Z,32.70
2022-11-28T16:34:46.782Z,33.40
2022-11-28T16:37:13.789Z,33.00
2022-11-28T16:39:40.809Z,43.63
2022-11-28T16:42:14.241Z,39.73
2022-11-28T16:44:40.862Z,42.30
2022-11-28T16:47:22.685Z,45.87
2022-11-28T16:50:16.119Z,41.23
2022-11-28T16:52:50.449Z,44.50
2022-11-28T16:55:33.104Z,43.30
2022-11-28T16:58:08.957Z,42.00
2022-11-28T17:00:35.850Z,42.17
2022-11-28T17:03:06.440Z,45.33
2022-11-28T17:05:35.730Z,50.60
2022-11-28T17:08:02.460Z,51.27
2022-11-28T17:10:29.178Z,60.63
2022-11-28T17:12:55.819Z,43.73
2022-11-28T17:15:23.620Z,56.33
2022-11-28T17:17:50.486Z,53.73
2022-11-28T17:20:17.845Z,54.93
2022-11-28T17:22:46.409Z,60.97
2022-11-28T17:25:18.314Z,61.30
2022-11-28T17:27:45.187Z,68.03
2022-11-28T17:30:16.043Z,48.30
2022-11-28T17:32:42.630Z,52.03
2022-11-28T17:35:20.078Z,52.47
2022-11-28T17:37:46.690Z,52.60
2022-11-28T17:40:32.086Z,40.43
2022-11-28T17:42:58.969Z,53.07
2022-11-28T17:45:27.602Z,55.40
2022-11-28T17:47:54.342Z,51.23
2022-11-28T17:50:21.023Z,49.90
2022-11-28T17:52:47.753Z,51.47
2022-11-28T17:55:14.775Z,51.20
2022-11-28T17:57:41.764Z,62.70
2022-11-28T18:00:09.101Z,60.27
2022-11-28T18:02:42.277Z,39.70
2022-11-28T18:05:09.553Z,54.30
2022-11-28T18:07:36.189Z,54.93
2022-11-28T18:10:03.113Z,59.60
2022-11-28T18:12:30.078Z,46.27
2022-11-28T18:14:56.733Z,44.60
2022-11-28T18:17:24.403Z,76.63
2022-11-28T18:19:55.926Z,59.67
2022-11-28T18:22:24.088Z,53.57
2022-11-28T18:24:50.785Z,53.53
2022-11-28T18:27:17.519Z,46.77
2022-11-28T18:29:44.662Z,43.20
2022-11-28T18:32:11.804Z,50.77
2022-11-28T18:34:38.603Z,53.50
2022-11-28T18:37:05.427Z,57.53
2022-11-28T18:39:33.119Z,46.13
2022-11-28T18:42:00.145Z,70.83
2022-11-28T18:44:28.433Z,50.53
2022-11-28T18:46:55.143Z,54.83
2022-11-28T18:49:22.136Z,57.23
2022-11-28T18:51:48.829Z,61.63
2022-11-28T18:54:20.845Z,60.30
2022-11-28T18:56:48.917Z,67.67
2022-11-28T18:59:16.146Z,60.83
2022-11-28T19:01:42.845Z,56.07
2022-11-28T19:04:11.200Z,59.33
2022-11-28T19:06:39.033Z,55.50
2022-11-28T19:09:07.690Z,67.00
2022-11-28T19:11:35.584Z,55.60
2022-11-28T19:14:02.609Z,70.27
2022-11-28T19:16:31.119Z,57.10
2022-11-28T19:18:58.440Z,58.70
2022-11-28T19:21:26.415Z,43.73
2022-11-28T19:23:54.280Z,56.63
2022-11-28T19:26:22.265Z,60.60
2022-11-28T19:28:49.327Z,50.50
2022-11-28T19:31:17.235Z,58.30
2022-11-28T19:33:44.351Z,74.60
2022-11-28T19:36:12.341Z,57.50
2022-11-28T19:38:39.407Z,51.23
2022-11-28T19:41:16.320Z,63.33
2022-11-28T19:43:43.205Z,59.93
2022-11-28T19:46:10.552Z,63.70
2022-11-28T19:48:39.066Z,56.43
2022-11-28T19:51:06.267Z,68.73
2022-11-28T19:53:34.251Z,76.00
2022-11-28T19:56:05.144Z,70.63
2022-11-28T19:58:32.183Z,50.00
2022-11-28T20:01:05.400Z,60.90
2022-11-28T20:03:32.610Z,71.63
2022-11-28T20:05:59.419Z,77.70
2022-11-28T20:08:26.402Z,84.37
2022-11-28T20:10:53.136Z,89.47
2022-11-28T20:13:19.841Z,91.50
2022-11-28T20:15:46.858Z,94.50
2022-11-28T20:18:13.451Z,108.23
2022-11-28T20:20:40.194Z,79.17
2022-11-28T20:23:07.136Z,110.67
2022-11-28T20:25:33.868Z,78.07
2022-11-28T20:28:01.025Z,68.20
2022-11-28T20:30:27.641Z,116.37
2022-11-28T20:32:54.946Z,102.37
2022-11-28T20:35:24.407Z,101.33
2022-11-28T20:37:51.502Z,85.37
2022-11-28T20:40:18.254Z,103.90
2022-11-28T20:42:44.956Z,94.93
2022-11-28T20:45:11.662Z,94.67
2022-11-28T20:47:38.411Z,97.60
2022-11-28T20:50:06.038Z,103.47
2022-11-28T20:52:32.632Z,95.47
2022-11-28T20:54:59.405Z,121.37
2022-11-28T20:57:26.517Z,106.20
2022-11-28T20:59:56.675Z,99.10
2022-11-28T21:02:23.964Z,111.50
2022-11-28T21:04:50.663Z,97.67
2022-11-28T21:07:18.595Z,93.10
2022-11-28T21:09:45.625Z,85.27
2022-11-28T21:12:14.488Z,96.13
2022-11-28T21:14:44.791Z,84.00
2022-11-28T21:17:11.565Z,76.40
2022-11-28T21:19:38.256Z,90.27
2022-11-28T21:22:04.930Z,74.80
2022-11-28T21:24:31.577Z,91.17
2022-11-28T21:26:58.256Z,79.53
2022-11-28T21:29:24.958Z,70.93
2022-11-28T21:31:53.396Z,69.00
2022-11-28T21:34:30.316Z,62.37
2022-11-28T21:36:56.894Z,75.90
2022-11-28T21:39:23.488Z,72.40
2022-11-28T21:41:51.078Z,74.17
2022-11-28T21:44:17.836Z,74.20
2022-11-28T21:46:44.406Z,82.27
2022-11-28T21:49:12.328Z,76.93
2022-11-28T21:51:39.691Z,85.03
2022-11-28T21:54:06.284Z,80.37
2022-11-28T21:56:33.480Z,82.20
2022-11-28T21:59:00.147Z,76.97
2022-11-28T22:01:27.031Z,93.20
2022-11-28T22:03:59.022Z,71.67
2022-11-28T22:06:29.003Z,81.80
2022-11-28T22:08:55.665Z,92.53
2022-11-28T22:11:22.696Z,91.83
2022-11-28T22:13:49.834Z,73.40
2022-11-28T22:16:16.539Z,73.43
2022-11-28T22:18:44.321Z,65.73
2022-11-28T22:21:49.468Z,57.27
2022-11-28T22:23:58.517Z,68.53
2022-11-28T22:26:25.274Z,66.77
2022-11-28T22:28:53.898Z,63.03
2022-11-28T22:31:22.904Z,59.87
2022-11-28T22:33:49.947Z,69.13
2022-11-28T22:36:17.707Z,59.57
2022-11-28T22:38:44.786Z,57.93
2022-11-28T22:41:15.806Z,61.37
2022-11-28T22:43:42.609Z,66.90
2022-11-28T22:46:09.797Z,65.57
2022-11-28T22:48:37.214Z,59.37
2022-11-28T22:51:11.741Z,66.50
2022-11-28T22:53:38.419Z,68.33
2022-11-28T22:56:05.508Z,63.53
2022-11-28T22:58:42.140Z,56.47
2022-11-28T23:01:11.043Z,74.00
2022-11-28T23:03:37.722Z,69.03
2022-11-28T23:06:05.796Z,57.90
2022-11-28T23:08:32.452Z,68.30
2022-11-28T23:10:59.068Z,63.40
2022-11-28T23:13:25.623Z,60.23
2022-11-28T23:15:53.071Z,65.27
2022-11-28T23:18:19.806Z,65.60
2022-11-28T23:20:46.545Z,55.17
2022-11-28T23:23:13.095Z,68.23
2022-11-28T23:25:39.881Z,53.53
2022-11-28T23:28:07.367Z,63.60
2022-11-28T23:30:34.461Z,72.33
2022-11-28T23:33:01.398Z,65.20
2022-11-28T23:35:28.088Z,62.70
2022-11-28T23:37:55.272Z,54.53
2022-11-28T23:40:21.802Z,56.07
2022-11-28T23:42:48.454Z,57.60
2022-11-28T23:45:15.031Z,51.67
2022-11-28T23:47:41.612Z,56.70
2022-11-28T23:50:08.504Z,79.97
2022-11-28T23:52:35.003Z,58.63
2022-11-28T23:55:01.560Z,68.90
2022-11-28T23:57:28.297Z,86.30
2022-11-28T23:59:54.979Z,75.43
